Lakeside, Ohio
Current Conditions -  °F | °C
As of 2:33 AM on Wednesday 26 Nov 2014 (Local Time) from KPCW Reporting Station
Overcast Overcast  
Wind Chill: 23°   Ceiling: 2300
Heat Index: 28°   Visibility: 10mi
Dew Point: 21°   Wind: 5mph
Humidity: 74%   Direction: 100°E
Pressure: 30.17"   Gusts: NA
Location:  41.5249°N, 82.7767°W
Report Text: KPCW 260733Z AUTO 10004KT 10SM OVC023 M02/M06 A3017 RMK AO2 $
Loading
Personal Weather Stations






























Interactive Weather Map New forecast layout! Learn more

10-Day Weather Forecast

Advertisements
Track Severe Weather on mobile